sensor_id;sensor_type;location;lat;lon;timestamp;P1;durP1;ratioP1;P2;durP2;ratioP2
12059;SDS011;6091;51.432;6.880;2023-10-08T00:01:09;2.42;;;2.00;;
12059;SDS011;6091;51.432;6.880;2023-10-08T00:03:41;2.00;;;1.77;;
12059;SDS011;6091;51.432;6.880;2023-10-08T00:06:19;2.35;;;2.10;;
12059;SDS011;6091;51.432;6.880;2023-10-08T00:08:48;2.20;;;2.00;;
12059;SDS011;6091;51.432;6.880;2023-10-08T00:11:16;2.10;;;1.90;;
12059;SDS011;6091;51.432;6.880;2023-10-08T00:13:45;1.92;;;1.83;;
12059;SDS011;6091;51.432;6.880;2023-10-08T00:16:15;1.95;;;1.80;;
12059;SDS011;6091;51.432;6.880;2023-10-08T00:18:44;2.20;;;2.00;;
12059;SDS011;6091;51.432;6.880;2023-10-08T00:21:19;2.45;;;2.25;;
12059;SDS011;6091;51.432;6.880;2023-10-08T00:23:54;2.20;;;2.00;;
12059;SDS011;6091;51.432;6.880;2023-10-08T00:26:26;2.33;;;2.13;;
12059;SDS011;6091;51.432;6.880;2023-10-08T00:28:58;2.35;;;2.15;;
12059;SDS011;6091;51.432;6.880;2023-10-08T00:31:43;2.10;;;1.90;;
12059;SDS011;6091;51.432;6.880;2023-10-08T00:34:12;2.00;;;1.80;;
12059;SDS011;6091;51.432;6.880;2023-10-08T00:36:41;1.75;;;1.65;;
12059;SDS011;6091;51.432;6.880;2023-10-08T00:39:10;2.45;;;2.05;;
12059;SDS011;6091;51.432;6.880;2023-10-08T00:41:43;2.22;;;2.03;;
12059;SDS011;6091;51.432;6.880;2023-10-08T00:44:17;2.22;;;2.03;;
12059;SDS011;6091;51.432;6.880;2023-10-08T00:47:04;2.25;;;2.03;;
12059;SDS011;6091;51.432;6.880;2023-10-08T00:49:33;2.28;;;2.00;;
12059;SDS011;6091;51.432;6.880;2023-10-08T00:52:10;2.22;;;1.98;;
12059;SDS011;6091;51.432;6.880;2023-10-08T00:54:40;2.35;;;2.15;;
12059;SDS011;6091;51.432;6.880;2023-10-08T00:57:25;1.80;;;1.70;;
12059;SDS011;6091;51.432;6.880;2023-10-08T00:59:56;2.22;;;2.03;;
12059;SDS011;6091;51.432;6.880;2023-10-08T01:02:27;2.22;;;2.03;;
12059;SDS011;6091;51.432;6.880;2023-10-08T01:05:16;2.13;;;1.80;;
12059;SDS011;6091;51.432;6.880;2023-10-08T01:07:50;2.22;;;1.90;;
12059;SDS011;6091;51.432;6.880;2023-10-08T01:10:18;2.47;;;2.28;;
12059;SDS011;6091;51.432;6.880;2023-10-08T01:12:47;2.75;;;2.00;;
12059;SDS011;6091;51.432;6.880;2023-10-08T01:15:36;1.85;;;1.70;;
12059;SDS011;6091;51.432;6.880;2023-10-08T01:18:04;2.25;;;2.00;;
12059;SDS011;6091;51.432;6.880;2023-10-08T01:20:35;2.10;;;1.90;;
12059;SDS011;6091;51.432;6.880;2023-10-08T01:23:18;2.08;;;1.73;;
12059;SDS011;6091;51.432;6.880;2023-10-08T01:25:53;2.28;;;2.08;;
12059;SDS011;6091;51.432;6.880;2023-10-08T01:28:39;1.80;;;1.70;;
12059;SDS011;6091;51.432;6.880;2023-10-08T01:31:06;2.22;;;2.03;;
12059;SDS011;6091;51.432;6.880;2023-10-08T01:33:36;2.20;;;2.00;;
12059;SDS011;6091;51.432;6.880;2023-10-08T01:36:05;2.05;;;1.90;;
12059;SDS011;6091;51.432;6.880;2023-10-08T01:38:39;1.95;;;1.80;;
12059;SDS011;6091;51.432;6.880;2023-10-08T01:41:08;2.15;;;1.90;;
12059;SDS011;6091;51.432;6.880;2023-10-08T01:43:46;2.22;;;1.77;;
12059;SDS011;6091;51.432;6.880;2023-10-08T01:46:16;2.10;;;1.90;;
12059;SDS011;6091;51.432;6.880;2023-10-08T01:48:43;2.38;;;2.17;;
12059;SDS011;6091;51.432;6.880;2023-10-08T01:51:12;2.30;;;2.00;;
12059;SDS011;6091;51.432;6.880;2023-10-08T01:53:54;3.28;;;1.90;;
12059;SDS011;6091;51.432;6.880;2023-10-08T01:56:22;2.22;;;1.90;;
12059;SDS011;6091;51.432;6.880;2023-10-08T01:58:50;2.80;;;2.15;;
12059;SDS011;6091;51.432;6.880;2023-10-08T02:01:20;2.33;;;2.13;;
12059;SDS011;6091;51.432;6.880;2023-10-08T02:03:48;2.20;;;2.00;;
12059;SDS011;6091;51.432;6.880;2023-10-08T02:06:16;2.17;;;1.95;;
12059;SDS011;6091;51.432;6.880;2023-10-08T02:08:43;2.03;;;1.83;;
12059;SDS011;6091;51.432;6.880;2023-10-08T02:11:10;1.95;;;1.80;;
12059;SDS011;6091;51.432;6.880;2023-10-08T02:13:39;1.83;;;1.70;;
12059;SDS011;6091;51.432;6.880;2023-10-08T02:16:09;1.90;;;1.80;;
12059;SDS011;6091;51.432;6.880;2023-10-08T02:18:38;2.28;;;2.08;;
12059;SDS011;6091;51.432;6.880;2023-10-08T02:21:07;2.60;;;1.92;;
12059;SDS011;6091;51.432;6.880;2023-10-08T02:23:36;2.35;;;2.15;;
12059;SDS011;6091;51.432;6.880;2023-10-08T02:26:04;2.10;;;1.90;;
12059;SDS011;6091;51.432;6.880;2023-10-08T02:28:32;2.42;;;2.13;;
12059;SDS011;6091;51.432;6.880;2023-10-08T02:30:59;2.13;;;1.92;;
12059;SDS011;6091;51.432;6.880;2023-10-08T02:33:27;1.92;;;1.75;;
12059;SDS011;6091;51.432;6.880;2023-10-08T02:35:56;2.20;;;2.00;;
12059;SDS011;6091;51.432;6.880;2023-10-08T02:38:23;1.98;;;1.83;;
12059;SDS011;6091;51.432;6.880;2023-10-08T02:40:50;2.45;;;2.20;;
12059;SDS011;6091;51.432;6.880;2023-10-08T02:43:20;1.90;;;1.80;;
12059;SDS011;6091;51.432;6.880;2023-10-08T02:45:47;1.95;;;1.77;;
12059;SDS011;6091;51.432;6.880;2023-10-08T02:48:17;1.70;;;1.60;;
12059;SDS011;6091;51.432;6.880;2023-10-08T02:50:45;1.90;;;1.75;;
12059;SDS011;6091;51.432;6.880;2023-10-08T02:53:12;2.38;;;2.17;;
12059;SDS011;6091;51.432;6.880;2023-10-08T02:55:50;2.15;;;1.95;;
12059;SDS011;6091;51.432;6.880;2023-10-08T02:58:17;2.45;;;1.98;;
12059;SDS011;6091;51.432;6.880;2023-10-08T03:00:47;2.50;;;2.30;;
12059;SDS011;6091;51.432;6.880;2023-10-08T03:03:16;2.47;;;2.05;;
12059;SDS011;6091;51.432;6.880;2023-10-08T03:05:51;2.85;;;2.00;;
12059;SDS011;6091;51.432;6.880;2023-10-08T03:08:23;2.00;;;1.90;;
12059;SDS011;6091;51.432;6.880;2023-10-08T03:10:50;1.98;;;1.80;;
12059;SDS011;6091;51.432;6.880;2023-10-08T03:13:22;2.33;;;2.13;;
12059;SDS011;6091;51.432;6.880;2023-10-08T03:15:52;1.90;;;1.80;;
12059;SDS011;6091;51.432;6.880;2023-10-08T03:18:29;2.20;;;2.00;;
12059;SDS011;6091;51.432;6.880;2023-10-08T03:21:04;2.42;;;2.22;;
12059;SDS011;6091;51.432;6.880;2023-10-08T03:24:08;1.73;;;1.63;;
12059;SDS011;6091;51.432;6.880;2023-10-08T03:26:39;2.35;;;1.98;;
12059;SDS011;6091;51.432;6.880;2023-10-08T03:29:06;2.20;;;2.00;;
12059;SDS011;6091;51.432;6.880;2023-10-08T03:31:44;2.28;;;1.80;;
12059;SDS011;6091;51.432;6.880;2023-10-08T03:34:14;2.75;;;1.98;;
12059;SDS011;6091;51.432;6.880;2023-10-08T03:36:45;2.60;;;2.13;;
12059;SDS011;6091;51.432;6.880;2023-10-08T03:39:16;2.17;;;1.98;;
12059;SDS011;6091;51.432;6.880;2023-10-08T03:41:46;2.63;;;2.08;;
12059;SDS011;6091;51.432;6.880;2023-10-08T03:44:32;2.30;;;2.10;;
12059;SDS011;6091;51.432;6.880;2023-10-08T03:47:06;2.50;;;1.90;;
12059;SDS011;6091;51.432;6.880;2023-10-08T03:49:37;2.25;;;1.80;;
12059;SDS011;6091;51.432;6.880;2023-10-08T03:52:11;2.17;;;1.98;;
12059;SDS011;6091;51.432;6.880;2023-10-08T03:54:42;2.25;;;2.05;;
12059;SDS011;6091;51.432;6.880;2023-10-08T03:57:15;2.05;;;1.92;;
12059;SDS011;6091;51.432;6.880;2023-10-08T03:59:46;2.10;;;1.90;;
12059;SDS011;6091;51.432;6.880;2023-10-08T04:02:15;2.30;;;2.10;;
12059;SDS011;6091;51.432;6.880;2023-10-08T04:05:05;2.00;;;1.90;;
12059;SDS011;6091;51.432;6.880;2023-10-08T04:07:45;2.75;;;2.20;;
12059;SDS011;6091;51.432;6.880;2023-10-08T04:10:34;2.00;;;1.80;;
12059;SDS011;6091;51.432;6.880;2023-10-08T04:13:05;2.10;;;1.90;;
12059;SDS011;6091;51.432;6.880;2023-10-08T04:15:36;3.30;;;1.92;;
12059;SDS011;6091;51.432;6.880;2023-10-08T04:18:10;2.65;;;1.90;;
12059;SDS011;6091;51.432;6.880;2023-10-08T04:20:40;2.13;;;1.92;;
12059;SDS011;6091;51.432;6.880;2023-10-08T04:23:25;2.22;;;2.00;;
12059;SDS011;6091;51.432;6.880;2023-10-08T04:25:53;2.03;;;1.80;;
12059;SDS011;6091;51.432;6.880;2023-10-08T04:28:21;2.13;;;1.92;;
12059;SDS011;6091;51.432;6.880;2023-10-08T04:30:54;2.10;;;1.90;;
12059;SDS011;6091;51.432;6.880;2023-10-08T04:33:27;2.30;;;2.10;;
12059;SDS011;6091;51.432;6.880;2023-10-08T04:36:00;3.30;;;2.33;;
12059;SDS011;6091;51.432;6.880;2023-10-08T04:38:28;1.90;;;1.73;;
12059;SDS011;6091;51.432;6.880;2023-10-08T04:40:57;2.08;;;1.92;;
12059;SDS011;6091;51.432;6.880;2023-10-08T04:43:29;2.22;;;1.92;;
12059;SDS011;6091;51.432;6.880;2023-10-08T04:45:59;2.53;;;2.30;;
12059;SDS011;6091;51.432;6.880;2023-10-08T04:48:46;2.58;;;2.20;;
12059;SDS011;6091;51.432;6.880;2023-10-08T04:51:13;2.22;;;2.00;;
12059;SDS011;6091;51.432;6.880;2023-10-08T04:53:40;1.88;;;1.73;;
12059;SDS011;6091;51.432;6.880;2023-10-08T04:56:14;2.17;;;2.00;;
12059;SDS011;6091;51.432;6.880;2023-10-08T04:58:49;2.10;;;1.90;;
12059;SDS011;6091;51.432;6.880;2023-10-08T05:01:18;1.65;;;1.55;;
12059;SDS011;6091;51.432;6.880;2023-10-08T05:04:05;2.40;;;2.20;;
12059;SDS011;6091;51.432;6.880;2023-10-08T05:06:32;2.55;;;2.22;;
12059;SDS011;6091;51.432;6.880;2023-10-08T05:11:47;2.15;;;1.95;;
12059;SDS011;6091;51.432;6.880;2023-10-08T05:14:17;2.20;;;1.98;;
12059;SDS011;6091;51.432;6.880;2023-10-08T05:17:08;2.45;;;2.25;;
12059;SDS011;6091;51.432;6.880;2023-10-08T05:19:48;2.05;;;1.85;;
12059;SDS011;6091;51.432;6.880;2023-10-08T05:22:34;1.95;;;1.80;;
12059;SDS011;6091;51.432;6.880;2023-10-08T05:25:04;2.00;;;1.80;;
12059;SDS011;6091;51.432;6.880;2023-10-08T05:27:52;2.17;;;1.98;;
12059;SDS011;6091;51.432;6.880;2023-10-08T05:30:27;2.10;;;1.90;;
12059;SDS011;6091;51.432;6.880;2023-10-08T05:33:08;2.00;;;1.80;;
12059;SDS011;6091;51.432;6.880;2023-10-08T05:35:51;2.50;;;1.95;;
12059;SDS011;6091;51.432;6.880;2023-10-08T05:38:44;1.80;;;1.70;;
12059;SDS011;6091;51.432;6.880;2023-10-08T05:41:29;2.15;;;1.90;;
12059;SDS011;6091;51.432;6.880;2023-10-08T05:44:06;2.47;;;2.03;;
12059;SDS011;6091;51.432;6.880;2023-10-08T05:46:45;2.33;;;2.05;;
12059;SDS011;6091;51.432;6.880;2023-10-08T05:49:35;2.13;;;1.92;;
12059;SDS011;6091;51.432;6.880;2023-10-08T05:52:05;2.45;;;2.20;;
12059;SDS011;6091;51.432;6.880;2023-10-08T05:54:32;1.98;;;1.75;;
12059;SDS011;6091;51.432;6.880;2023-10-08T05:57:00;1.90;;;1.80;;
12059;SDS011;6091;51.432;6.880;2023-10-08T05:59:39;2.13;;;1.92;;
12059;SDS011;6091;51.432;6.880;2023-10-08T06:07:47;2.40;;;2.05;;
12059;SDS011;6091;51.432;6.880;2023-10-08T06:10:27;2.20;;;1.83;;
12059;SDS011;6091;51.432;6.880;2023-10-08T06:12:57;2.00;;;1.90;;
12059;SDS011;6091;51.432;6.880;2023-10-08T06:20:59;2.65;;;2.15;;
12059;SDS011;6091;51.432;6.880;2023-10-08T06:23:36;2.10;;;1.88;;
12059;SDS011;6091;51.432;6.880;2023-10-08T06:26:08;2.47;;;1.90;;
12059;SDS011;6091;51.432;6.880;2023-10-08T06:28:39;2.15;;;1.95;;
12059;SDS011;6091;51.432;6.880;2023-10-08T06:31:10;2.38;;;2.03;;
12059;SDS011;6091;51.432;6.880;2023-10-08T06:33:39;2.20;;;2.00;;
12059;SDS011;6091;51.432;6.880;2023-10-08T06:36:08;2.28;;;2.00;;
12059;SDS011;6091;51.432;6.880;2023-10-08T06:38:40;2.65;;;2.38;;
12059;SDS011;6091;51.432;6.880;2023-10-08T06:41:09;2.47;;;2.00;;
12059;SDS011;6091;51.432;6.880;2023-10-08T06:43:42;2.40;;;2.05;;
12059;SDS011;6091;51.432;6.880;2023-10-08T06:46:29;3.03;;;1.80;;
12059;SDS011;6091;51.432;6.880;2023-10-08T06:49:06;2.22;;;2.00;;
12059;SDS011;6091;51.432;6.880;2023-10-08T06:51:39;2.00;;;1.90;;
12059;SDS011;6091;51.432;6.880;2023-10-08T06:54:10;2.30;;;2.10;;
12059;SDS011;6091;51.432;6.880;2023-10-08T06:56:41;2.72;;;2.10;;
12059;SDS011;6091;51.432;6.880;2023-10-08T06:59:13;2.33;;;2.05;;
12059;SDS011;6091;51.432;6.880;2023-10-08T07:01:41;2.42;;;1.95;;
12059;SDS011;6091;51.432;6.880;2023-10-08T07:04:12;2.63;;;2.00;;
12059;SDS011;6091;51.432;6.880;2023-10-08T07:06:41;2.65;;;1.80;;
12059;SDS011;6091;51.432;6.880;2023-10-08T07:09:10;2.55;;;2.10;;
12059;SDS011;6091;51.432;6.880;2023-10-08T07:11:58;2.30;;;2.10;;
12059;SDS011;6091;51.432;6.880;2023-10-08T07:14:32;2.17;;;1.98;;
12059;SDS011;6091;51.432;6.880;2023-10-08T07:17:00;2.33;;;2.13;;
12059;SDS011;6091;51.432;6.880;2023-10-08T07:19:29;2.38;;;2.17;;
12059;SDS011;6091;51.432;6.880;2023-10-08T07:22:07;2.30;;;2.10;;
12059;SDS011;6091;51.432;6.880;2023-10-08T07:24:45;3.50;;;2.67;;
12059;SDS011;6091;51.432;6.880;2023-10-08T07:27:17;2.58;;;2.22;;
12059;SDS011;6091;51.432;6.880;2023-10-08T07:29:51;3.42;;;2.85;;
12059;SDS011;6091;51.432;6.880;2023-10-08T07:32:23;4.50;;;2.90;;
12059;SDS011;6091;51.432;6.880;2023-10-08T07:34:53;2.70;;;2.30;;
12059;SDS011;6091;51.432;6.880;2023-10-08T07:37:23;3.17;;;2.42;;
12059;SDS011;6091;51.432;6.880;2023-10-08T07:39:52;3.08;;;2.60;;
12059;SDS011;6091;51.432;6.880;2023-10-08T07:42:21;3.20;;;2.70;;
12059;SDS011;6091;51.432;6.880;2023-10-08T07:44:48;2.58;;;2.33;;
12059;SDS011;6091;51.432;6.880;2023-10-08T07:47:20;3.30;;;2.55;;
12059;SDS011;6091;51.432;6.880;2023-10-08T07:49:48;4.07;;;2.90;;
12059;SDS011;6091;51.432;6.880;2023-10-08T07:52:17;3.75;;;2.70;;
12059;SDS011;6091;51.432;6.880;2023-10-08T07:54:44;4.22;;;2.70;;
12059;SDS011;6091;51.432;6.880;2023-10-08T07:57:11;3.13;;;2.47;;
12059;SDS011;6091;51.432;6.880;2023-10-08T07:59:43;3.30;;;3.00;;
12059;SDS011;6091;51.432;6.880;2023-10-08T08:02:15;4.20;;;2.90;;
12059;SDS011;6091;51.432;6.880;2023-10-08T08:04:49;2.78;;;2.58;;
12059;SDS011;6091;51.432;6.880;2023-10-08T08:07:19;4.47;;;3.55;;
12059;SDS011;6091;51.432;6.880;2023-10-08T08:09:50;5.10;;;3.30;;
12059;SDS011;6091;51.432;6.880;2023-10-08T08:12:26;4.55;;;3.17;;
12059;SDS011;6091;51.432;6.880;2023-10-08T08:14:55;5.10;;;3.40;;
12059;SDS011;6091;51.432;6.880;2023-10-08T08:17:22;3.92;;;3.05;;
12059;SDS011;6091;51.432;6.880;2023-10-08T08:19:50;5.25;;;3.92;;
12059;SDS011;6091;51.432;6.880;2023-10-08T08:22:19;5.50;;;3.55;;
12059;SDS011;6091;51.432;6.880;2023-10-08T08:24:49;5.97;;;3.50;;
12059;SDS011;6091;51.432;6.880;2023-10-08T08:27:24;6.65;;;4.10;;
12059;SDS011;6091;51.432;6.880;2023-10-08T08:29:58;4.97;;;3.72;;
12059;SDS011;6091;51.432;6.880;2023-10-08T08:32:42;6.75;;;4.28;;
12059;SDS011;6091;51.432;6.880;2023-10-08T08:35:18;6.25;;;4.22;;
12059;SDS011;6091;51.432;6.880;2023-10-08T08:37:46;6.95;;;4.40;;
12059;SDS011;6091;51.432;6.880;2023-10-08T08:40:18;7.28;;;4.55;;
12059;SDS011;6091;51.432;6.880;2023-10-08T08:42:46;7.40;;;4.30;;
12059;SDS011;6091;51.432;6.880;2023-10-08T08:45:23;6.30;;;4.13;;
12059;SDS011;6091;51.432;6.880;2023-10-08T08:47:53;6.03;;;4.05;;
12059;SDS011;6091;51.432;6.880;2023-10-08T08:50:22;7.10;;;4.60;;
12059;SDS011;6091;51.432;6.880;2023-10-08T08:52:50;8.80;;;4.93;;
12059;SDS011;6091;51.432;6.880;2023-10-08T08:55:18;6.63;;;4.40;;
12059;SDS011;6091;51.432;6.880;2023-10-08T08:57:47;6.03;;;4.60;;
12059;SDS011;6091;51.432;6.880;2023-10-08T09:00:18;8.32;;;4.85;;
12059;SDS011;6091;51.432;6.880;2023-10-08T09:02:47;7.13;;;4.20;;
12059;SDS011;6091;51.432;6.880;2023-10-08T09:05:16;5.32;;;4.15;;
12059;SDS011;6091;51.432;6.880;2023-10-08T09:07:57;5.13;;;3.75;;
12059;SDS011;6091;51.432;6.880;2023-10-08T09:10:30;5.70;;;3.17;;
12059;SDS011;6091;51.432;6.880;2023-10-08T09:13:05;5.30;;;3.22;;
12059;SDS011;6091;51.432;6.880;2023-10-08T09:15:37;5.32;;;3.00;;
12059;SDS011;6091;51.432;6.880;2023-10-08T09:18:04;4.03;;;2.97;;
12059;SDS011;6091;51.432;6.880;2023-10-08T09:20:36;4.97;;;2.55;;
12059;SDS011;6091;51.432;6.880;2023-10-08T09:23:12;4.45;;;2.60;;
12059;SDS011;6091;51.432;6.880;2023-10-08T09:25:45;3.58;;;2.70;;
12059;SDS011;6091;51.432;6.880;2023-10-08T09:28:29;4.82;;;2.30;;
12059;SDS011;6091;51.432;6.880;2023-10-08T09:31:00;4.15;;;2.25;;
12059;SDS011;6091;51.432;6.880;2023-10-08T09:33:31;4.60;;;2.60;;
12059;SDS011;6091;51.432;6.880;2023-10-08T09:35:59;4.10;;;2.35;;
12059;SDS011;6091;51.432;6.880;2023-10-08T09:38:28;5.22;;;2.50;;
12059;SDS011;6091;51.432;6.880;2023-10-08T09:40:58;5.30;;;2.25;;
12059;SDS011;6091;51.432;6.880;2023-10-08T09:43:30;5.03;;;2.40;;
12059;SDS011;6091;51.432;6.880;2023-10-08T09:46:23;4.13;;;2.42;;
12059;SDS011;6091;51.432;6.880;2023-10-08T09:48:59;5.07;;;2.50;;
12059;SDS011;6091;51.432;6.880;2023-10-08T09:51:29;5.50;;;2.35;;
12059;SDS011;6091;51.432;6.880;2023-10-08T09:56:27;4.40;;;2.60;;
12059;SDS011;6091;51.432;6.880;2023-10-08T09:58:58;4.97;;;3.42;;
12059;SDS011;6091;51.432;6.880;2023-10-08T10:01:26;7.75;;;3.53;;
12059;SDS011;6091;51.432;6.880;2023-10-08T10:03:55;5.22;;;4.15;;
12059;SDS011;6091;51.432;6.880;2023-10-08T10:06:29;6.00;;;4.57;;
12059;SDS011;6091;51.432;6.880;2023-10-08T10:08:56;7.78;;;4.78;;
12059;SDS011;6091;51.432;6.880;2023-10-08T10:11:30;7.40;;;5.25;;
12059;SDS011;6091;51.432;6.880;2023-10-08T10:14:03;8.00;;;4.55;;
12059;SDS011;6091;51.432;6.880;2023-10-08T10:16:35;9.52;;;5.97;;
12059;SDS011;6091;51.432;6.880;2023-10-08T10:19:04;10.10;;;6.45;;
12059;SDS011;6091;51.432;6.880;2023-10-08T10:21:33;11.55;;;5.63;;
12059;SDS011;6091;51.432;6.880;2023-10-08T10:24:00;10.70;;;6.22;;
12059;SDS011;6091;51.432;6.880;2023-10-08T10:26:35;11.80;;;6.57;;
12059;SDS011;6091;51.432;6.880;2023-10-08T10:31:37;9.00;;;5.90;;
12059;SDS011;6091;51.432;6.880;2023-10-08T10:34:07;8.30;;;5.55;;
12059;SDS011;6091;51.432;6.880;2023-10-08T10:36:39;10.07;;;5.72;;
12059;SDS011;6091;51.432;6.880;2023-10-08T10:39:09;8.55;;;6.18;;
12059;SDS011;6091;51.432;6.880;2023-10-08T10:41:46;6.72;;;5.53;;
12059;SDS011;6091;51.432;6.880;2023-10-08T10:44:15;8.27;;;5.70;;
12059;SDS011;6091;51.432;6.880;2023-10-08T10:46:43;8.48;;;6.00;;
12059;SDS011;6091;51.432;6.880;2023-10-08T10:49:18;6.40;;;5.72;;
12059;SDS011;6091;51.432;6.880;2023-10-08T10:51:57;8.93;;;6.30;;
12059;SDS011;6091;51.432;6.880;2023-10-08T10:54:25;6.43;;;5.82;;
12059;SDS011;6091;51.432;6.880;2023-10-08T10:57:02;6.78;;;5.40;;
12059;SDS011;6091;51.432;6.880;2023-10-08T10:59:30;6.28;;;5.63;;
12059;SDS011;6091;51.432;6.880;2023-10-08T11:02:08;5.50;;;4.95;;
12059;SDS011;6091;51.432;6.880;2023-10-08T11:04:47;5.50;;;5.00;;
12059;SDS011;6091;51.432;6.880;2023-10-08T11:07:16;4.68;;;4.22;;
12059;SDS011;6091;51.432;6.880;2023-10-08T11:09:47;5.28;;;4.32;;
12059;SDS011;6091;51.432;6.880;2023-10-08T11:12:15;4.43;;;4.03;;
12059;SDS011;6091;51.432;6.880;2023-10-08T11:14:49;4.72;;;4.20;;
12059;SDS011;6091;51.432;6.880;2023-10-08T11:17:24;4.40;;;4.00;;
12059;SDS011;6091;51.432;6.880;2023-10-08T11:19:56;4.35;;;3.53;;
12059;SDS011;6091;51.432;6.880;2023-10-08T11:22:28;4.20;;;3.55;;
12059;SDS011;6091;51.432;6.880;2023-10-08T11:25:21;12.27;;;4.05;;
12059;SDS011;6091;51.432;6.880;2023-10-08T11:27:51;8.95;;;3.85;;
12059;SDS011;6091;51.432;6.880;2023-10-08T11:30:25;10.20;;;3.70;;
12059;SDS011;6091;51.432;6.880;2023-10-08T11:33:00;7.30;;;3.72;;
12059;SDS011;6091;51.432;6.880;2023-10-08T11:35:27;12.27;;;3.53;;
12059;SDS011;6091;51.432;6.880;2023-10-08T11:37:57;7.80;;;3.28;;
12059;SDS011;6091;51.432;6.880;2023-10-08T11:40:30;10.43;;;3.10;;
12059;SDS011;6091;51.432;6.880;2023-10-08T11:43:17;8.25;;;3.20;;
12059;SDS011;6091;51.432;6.880;2023-10-08T11:45:45;6.80;;;3.03;;
12059;SDS011;6091;51.432;6.880;2023-10-08T11:48:15;8.52;;;3.20;;
12059;SDS011;6091;51.432;6.880;2023-10-08T11:50:52;8.05;;;3.35;;
12059;SDS011;6091;51.432;6.880;2023-10-08T11:53:20;7.97;;;2.80;;
12059;SDS011;6091;51.432;6.880;2023-10-08T11:55:47;6.00;;;2.75;;
12059;SDS011;6091;51.432;6.880;2023-10-08T11:58:14;4.18;;;2.50;;
12059;SDS011;6091;51.432;6.880;2023-10-08T12:00:46;4.88;;;2.85;;
12059;SDS011;6091;51.432;6.880;2023-10-08T12:03:18;5.57;;;2.72;;
12059;SDS011;6091;51.432;6.880;2023-10-08T12:05:50;3.05;;;2.42;;
12059;SDS011;6091;51.432;6.880;2023-10-08T12:08:26;3.95;;;2.33;;
12059;SDS011;6091;51.432;6.880;2023-10-08T12:10:54;5.68;;;2.97;;
12059;SDS011;6091;51.432;6.880;2023-10-08T12:13:21;5.65;;;3.40;;
12059;SDS011;6091;51.432;6.880;2023-10-08T12:15:53;7.35;;;3.20;;
12059;SDS011;6091;51.432;6.880;2023-10-08T12:18:48;4.78;;;3.47;;
12059;SDS011;6091;51.432;6.880;2023-10-08T12:21:26;5.40;;;3.33;;
12059;SDS011;6091;51.432;6.880;2023-10-08T12:23:57;6.63;;;3.08;;
12059;SDS011;6091;51.432;6.880;2023-10-08T12:26:25;7.00;;;3.13;;
12059;SDS011;6091;51.432;6.880;2023-10-08T12:28:53;3.78;;;2.70;;
12059;SDS011;6091;51.432;6.880;2023-10-08T12:31:21;4.50;;;3.05;;
12059;SDS011;6091;51.432;6.880;2023-10-08T12:33:52;6.78;;;2.90;;
12059;SDS011;6091;51.432;6.880;2023-10-08T12:36:20;5.78;;;2.97;;
12059;SDS011;6091;51.432;6.880;2023-10-08T12:38:53;5.75;;;2.88;;
12059;SDS011;6091;51.432;6.880;2023-10-08T12:41:25;4.38;;;2.78;;
12059;SDS011;6091;51.432;6.880;2023-10-08T12:43:58;8.40;;;3.45;;
12059;SDS011;6091;51.432;6.880;2023-10-08T12:46:26;6.57;;;3.45;;
12059;SDS011;6091;51.432;6.880;2023-10-08T12:48:57;9.13;;;3.90;;
12059;SDS011;6091;51.432;6.880;2023-10-08T12:51:28;7.35;;;3.60;;
12059;SDS011;6091;51.432;6.880;2023-10-08T12:54:00;5.88;;;3.28;;
12059;SDS011;6091;51.432;6.880;2023-10-08T12:56:38;5.15;;;3.40;;
12059;SDS011;6091;51.432;6.880;2023-10-08T12:59:12;5.10;;;3.25;;
12059;SDS011;6091;51.432;6.880;2023-10-08T13:01:51;3.40;;;2.92;;
12059;SDS011;6091;51.432;6.880;2023-10-08T13:04:25;4.80;;;3.25;;
12059;SDS011;6091;51.432;6.880;2023-10-08T13:06:55;3.42;;;3.10;;
12059;SDS011;6091;51.432;6.880;2023-10-08T13:09:28;3.70;;;3.22;;
12059;SDS011;6091;51.432;6.880;2023-10-08T13:12:03;5.68;;;3.00;;
12059;SDS011;6091;51.432;6.880;2023-10-08T13:14:31;4.63;;;2.90;;
12059;SDS011;6091;51.432;6.880;2023-10-08T13:17:02;4.18;;;2.92;;
12059;SDS011;6091;51.432;6.880;2023-10-08T13:19:29;3.85;;;2.78;;
12059;SDS011;6091;51.432;6.880;2023-10-08T13:22:01;4.07;;;3.20;;
12059;SDS011;6091;51.432;6.880;2023-10-08T13:24:33;2.72;;;2.45;;
12059;SDS011;6091;51.432;6.880;2023-10-08T13:27:02;4.22;;;2.90;;
12059;SDS011;6091;51.432;6.880;2023-10-08T13:29:32;3.47;;;2.70;;
12059;SDS011;6091;51.432;6.880;2023-10-08T13:32:00;3.95;;;2.70;;
12059;SDS011;6091;51.432;6.880;2023-10-08T13:34:28;3.08;;;2.78;;
12059;SDS011;6091;51.432;6.880;2023-10-08T13:36:56;2.60;;;2.40;;
12059;SDS011;6091;51.432;6.880;2023-10-08T13:39:23;3.72;;;2.70;;
12059;SDS011;6091;51.432;6.880;2023-10-08T13:41:50;2.58;;;2.38;;
12059;SDS011;6091;51.432;6.880;2023-10-08T13:44:19;3.28;;;2.30;;
12059;SDS011;6091;51.432;6.880;2023-10-08T13:46:56;2.90;;;2.50;;
12059;SDS011;6091;51.432;6.880;2023-10-08T13:49:26;3.13;;;2.83;;
12059;SDS011;6091;51.432;6.880;2023-10-08T13:51:54;3.78;;;2.47;;
12059;SDS011;6091;51.432;6.880;2023-10-08T13:54:24;2.80;;;2.30;;
12059;SDS011;6091;51.432;6.880;2023-10-08T13:57:02;3.83;;;2.40;;
12059;SDS011;6091;51.432;6.880;2023-10-08T13:59:31;3.55;;;2.53;;
12059;SDS011;6091;51.432;6.880;2023-10-08T14:01:59;3.75;;;2.42;;
12059;SDS011;6091;51.432;6.880;2023-10-08T14:04:41;3.95;;;2.45;;
12059;SDS011;6091;51.432;6.880;2023-10-08T14:07:11;3.42;;;2.33;;
12059;SDS011;6091;51.432;6.880;2023-10-08T14:09:43;2.72;;;2.13;;
12059;SDS011;6091;51.432;6.880;2023-10-08T14:12:14;2.20;;;2.00;;
12059;SDS011;6091;51.432;6.880;2023-10-08T14:14:41;2.40;;;2.15;;
12059;SDS011;6091;51.432;6.880;2023-10-08T14:17:13;3.13;;;2.45;;
12059;SDS011;6091;51.432;6.880;2023-10-08T14:20:03;2.53;;;2.33;;
12059;SDS011;6091;51.432;6.880;2023-10-08T14:22:39;2.38;;;2.17;;
12059;SDS011;6091;51.432;6.880;2023-10-08T14:25:08;3.15;;;2.22;;
12059;SDS011;6091;51.432;6.880;2023-10-08T14:27:38;4.97;;;2.60;;
12059;SDS011;6091;51.432;6.880;2023-10-08T14:30:07;2.60;;;2.40;;
12059;SDS011;6091;51.432;6.880;2023-10-08T14:32:42;3.58;;;2.65;;
12059;SDS011;6091;51.432;6.880;2023-10-08T14:35:13;3.13;;;2.83;;
12059;SDS011;6091;51.432;6.880;2023-10-08T14:37:59;3.55;;;3.00;;
12059;SDS011;6091;51.432;6.880;2023-10-08T14:40:48;2.63;;;2.40;;
12059;SDS011;6091;51.432;6.880;2023-10-08T14:43:36;3.38;;;2.72;;
12059;SDS011;6091;51.432;6.880;2023-10-08T14:46:04;3.33;;;2.45;;
12059;SDS011;6091;51.432;6.880;2023-10-08T14:48:36;3.25;;;2.67;;
12059;SDS011;6091;51.432;6.880;2023-10-08T14:51:04;2.95;;;2.50;;
12059;SDS011;6091;51.432;6.880;2023-10-08T14:53:33;3.97;;;3.10;;
12059;SDS011;6091;51.432;6.880;2023-10-08T14:56:05;3.22;;;2.92;;
12059;SDS011;6091;51.432;6.880;2023-10-08T14:58:32;2.88;;;2.60;;
12059;SDS011;6091;51.432;6.880;2023-10-08T15:01:00;3.10;;;2.75;;
12059;SDS011;6091;51.432;6.880;2023-10-08T15:03:28;4.88;;;3.22;;
12059;SDS011;6091;51.432;6.880;2023-10-08T15:05:56;3.58;;;3.28;;
12059;SDS011;6091;51.432;6.880;2023-10-08T15:08:23;3.22;;;2.90;;
12059;SDS011;6091;51.432;6.880;2023-10-08T15:10:51;3.20;;;2.90;;
12059;SDS011;6091;51.432;6.880;2023-10-08T15:13:20;3.15;;;2.88;;
12059;SDS011;6091;51.432;6.880;2023-10-08T15:15:47;3.03;;;2.78;;
12059;SDS011;6091;51.432;6.880;2023-10-08T15:18:15;3.63;;;3.28;;
12059;SDS011;6091;51.432;6.880;2023-10-08T15:20:45;3.53;;;3.08;;
12059;SDS011;6091;51.432;6.880;2023-10-08T15:23:13;3.30;;;3.00;;
12059;SDS011;6091;51.432;6.880;2023-10-08T15:25:40;3.42;;;3.13;;
12059;SDS011;6091;51.432;6.880;2023-10-08T15:28:08;3.35;;;2.75;;
12059;SDS011;6091;51.432;6.880;2023-10-08T15:30:35;3.15;;;2.85;;
12059;SDS011;6091;51.432;6.880;2023-10-08T15:33:03;3.50;;;3.10;;
12059;SDS011;6091;51.432;6.880;2023-10-08T15:35:30;3.05;;;2.70;;
12059;SDS011;6091;51.432;6.880;2023-10-08T15:37:59;3.03;;;2.72;;
12059;SDS011;6091;51.432;6.880;2023-10-08T15:40:30;3.50;;;3.03;;
12059;SDS011;6091;51.432;6.880;2023-10-08T15:43:00;3.88;;;3.03;;
12059;SDS011;6091;51.432;6.880;2023-10-08T15:45:27;4.13;;;3.03;;
12059;SDS011;6091;51.432;6.880;2023-10-08T15:47:56;4.45;;;3.15;;
12059;SDS011;6091;51.432;6.880;2023-10-08T15:50:24;3.88;;;3.15;;